INFORMAÇÕES DO AERODROMO
Icao Aerodromo SBCF Nome do Aerodromo Tancredo Neves International Airport Cidade Belo Horizonte
Código GPS SBCF Elevação Média 2715 ft Tipo de Aerodromo Aeroporto Grande Porte

INFORMAÇÃO DE PISTA
Pista 16 Comprimento da Pista 9843 ft Largura da Pista 148 ft
Elevação da Pista 2712 ft Distância de Area de Escape da Pista 0 ft Orientação da Pista 139
Pista 34 Comprimento da Pista 9843 ft Largura da Pista 148 ft
Elevação da Pista 2712 ft Distância de Area de Escape da Pista 0 ft Orientação da Pista 319

FREQUÊNCIAS DO AERODROMO
Tipo APP Nome BELO HORIZ Frequência 120.2 MHZ
Tipo ATIS Nome BELO HORIZ Frequência 127.45 MHZ
Tipo CLD Nome CONFINS CL Frequência 121 MHZ
Tipo GND Nome GND Frequência 121.9 MHZ
Tipo OPS Nome BELO HORIZ Frequência 122.5 MHZ
Tipo TWR Nome CONFINS TW Frequência 118.2 MHZ

INFORMAÇÕES DE NAVEGAÇÃO PRÓXIMO AO AERODROMO
Tipo VOR-DME Nome Confins Frequência 114400 KHZ

Informações de Meteorologia(METAR atual)
METAR DE SBCF
ADDS - METARS form results

(0950 UTC 26 April 2018)
Data provider http://aviationweather.gov/adds/metars/
 
METAR text: SBCF 260900Z 10006KT CAVOK 18/16 Q1022
Conditions at: SBCF (BELO HORIZ/TANCR, BR) observed 0900 UTC 26 April 2018
Temperature: 18.0°C (64°F)
Dewpoint: 16.0°C (61°F) [RH = 88%]
Pressure (altimeter): 30.18 inches Hg (1022.0 mb)
Winds: from the E (100 degrees) at 7 MPH (6 knots; 3.1 m/s)
Visibility: 6 or more miles (10+ km)
Ceiling: ceiling and visibility are OK
Clouds: unknown
Weather: no significant weather observed at this time

Forecast for: SBCF (BELO HORIZ/TANCR, BR)
Text: TAF SBCF 260200Z 2606/2706 10008KT 7000 FEW030 TN16/2606Z TX24/2616Z
Forecast period: 0600 to 1200 UTC 26 April 2018
Forecast type: FROM: standard forecast or significant change
Winds: from the E (100 degrees) at 9 MPH (8 knots; 4.2 m/s)
Visibility: 4 miles (7 km)
Clouds: few clouds at 3000 feet AGL
Weather: no significant weather forecast for this period
Forecast for: SBCF (BELO HORIZ/TANCR, BR)
Text: TAF SBCF 260200Z 2606/2706 10008KT 7000 FEW030 TN16/2606Z TX24/2616Z
Forecast period: 0600 to 1200 UTC 26 April 2018
Forecast type: FROM: standard forecast or significant change
Winds: from the E (100 degrees) at 9 MPH (8 knots; 4.2 m/s)
Visibility: 4 miles (7 km)
Clouds: few clouds at 3000 feet AGL
Weather: no significant weather forecast for this period
Forecast for: SBCF (BELO HORIZ/TANCR, BR)
Text: TAF SBCF 260200Z 2606/2706 10008KT 7000 FEW030 TN16/2606Z TX24/2616Z
Forecast period: 1200 UTC 26 April 2018 to 0000 UTC 27 April 2018
Forecast type: BECOMING: Conditions expected to become as follows by 1400 UTC 26 April 2018
Winds: from the ENE (70 degrees) at 9 MPH (8 knots; 4.2 m/s)
Visibility: 4 miles (7 km)
Clouds: scattered clouds at 3500 feet AGL
Weather: no significant weather forecast for this period
Forecast for: SBCF (BELO HORIZ/TANCR, BR)
Text: TAF SBCF 260200Z 2606/2706 10008KT 7000 FEW030 TN16/2606Z TX24/2616Z
Forecast period: 1200 UTC 26 April 2018 to 0000 UTC 27 April 2018
Forecast type: BECOMING: Conditions expected to become as follows by 1400 UTC 26 April 2018
Winds: from the ENE (70 degrees) at 9 MPH (8 knots; 4.2 m/s)
Visibility: 4 miles (7 km)
Clouds: scattered clouds at 3500 feet AGL
Weather: no significant weather forecast for this period
Forecast for: SBCF (BELO HORIZ/TANCR, BR)
Text: TAF SBCF 260200Z 2606/2706 10008KT 7000 FEW030 TN16/2606Z TX24/2616Z
Forecast period: 1500 to 1800 UTC 26 April 2018
Forecast type: PROBABLE: 30 percent likelihood of the following during this time
Ceiling: 4000 feet AGL
Clouds: broken clouds at 4000 feet AGL
Weather: no significant weather forecast for this period
Forecast for: SBCF (BELO HORIZ/TANCR, BR)
Text: TAF SBCF 260200Z 2606/2706 10008KT 7000 FEW030 TN16/2606Z TX24/2616Z
Forecast period: 1500 to 1800 UTC 26 April 2018
Forecast type: PROBABLE: 30 percent likelihood of the following during this time
Ceiling: 4000 feet AGL
Clouds: broken clouds at 4000 feet AGL
Weather: no significant weather forecast for this period
Forecast for: SBCF (BELO HORIZ/TANCR, BR)
Text: TAF SBCF 260200Z 2606/2706 10008KT 7000 FEW030 TN16/2606Z TX24/2616Z
Forecast period: 0000 to 0600 UTC 27 April 2018
Forecast type: BECOMING: Conditions expected to become as follows by 0200 UTC 27 April 2018
Winds: from the E (100 degrees) at 12 MPH (10 knots; 5.2 m/s)
Visibility: 6 or more miles (10+ km)
Weather: NSW  (no significant weather)
Forecast for: SBCF (BELO HORIZ/TANCR, BR)
Text: TAF SBCF 260200Z 2606/2706 10008KT 7000 FEW030 TN16/2606Z TX24/2616Z
Forecast period: 0000 to 0600 UTC 27 April 2018
Forecast type: BECOMING: Conditions expected to become as follows by 0200 UTC 27 April 2018
Winds: from the E (100 degrees) at 12 MPH (10 knots; 5.2 m/s)
Visibility: 6 or more miles (10+ km)
Weather: NSW  (no significant weather)

MAPA DO AERODROMO


Desenvolvido por Virtual Airlines Manager




Modificado por Servidor Brasil Amigos